createdAt,value
2022-09-13T00:03:05.386Z,100010.09
2022-09-13T00:08:08.364Z,100010.25
2022-09-13T00:13:13.112Z,100000.63
2022-09-13T00:18:15.905Z,99993.78
2022-09-13T00:23:18.634Z,99984.16
2022-09-13T00:28:22.917Z,99984.47
2022-09-13T00:33:25.669Z,99973.84
2022-09-13T00:38:28.372Z,99958.75
2022-09-13T00:43:49.749Z,99967.69
2022-09-13T00:48:54.160Z,99952.81
2022-09-13T00:53:57.052Z,99950.28
2022-09-13T00:59:01.749Z,99943.19
2022-09-13T01:04:04.453Z,99938.94
2022-09-13T01:09:07.147Z,99937.22
2022-09-13T01:14:11.173Z,99929.16
2022-09-13T01:19:13.886Z,99926.47
2022-09-13T01:24:32.471Z,99922.06
2022-09-13T01:30:02.895Z,99921.38
2022-09-13T01:35:09.939Z,99920.66
2022-09-13T01:40:18.720Z,99915.28
2022-09-13T01:45:25.930Z,99918.13
2022-09-13T01:50:34.497Z,99908.31
2022-09-13T01:55:40.332Z,99914.59
2022-09-13T02:00:45.916Z,99903.09
2022-09-13T02:05:51.205Z,99895.16
2022-09-13T02:10:56.331Z,99896.16
2022-09-13T02:16:03.376Z,99888.09
2022-09-13T02:21:08.693Z,99883.84
2022-09-13T02:26:11.347Z,99877.63
2022-09-13T02:31:16.032Z,99873.94
2022-09-13T02:36:21.115Z,99867.84
2022-09-13T02:41:27.528Z,99852.81
2022-09-13T02:46:39.613Z,99854.66
2022-09-13T02:51:45.595Z,99843.03
2022-09-13T02:56:52.812Z,99836.97
2022-09-13T03:01:59.490Z,99832.56
2022-09-13T03:07:03.148Z,99827.34
2022-09-13T03:12:25.274Z,99832.72
2022-09-13T03:17:39.391Z,99839.09
2022-09-13T03:23:08.401Z,99843.91
2022-09-13T03:28:15.055Z,99844.03
2022-09-13T03:33:21.582Z,99835.41
2022-09-13T03:38:27.873Z,99830.03
2022-09-13T03:43:35.825Z,99831.72
2022-09-13T03:48:40.558Z,99835.81
2022-09-13T03:53:44.283Z,99834.97
2022-09-13T03:58:47.047Z,99828.59
2022-09-13T04:03:55.847Z,99827.91
2022-09-13T04:09:00.531Z,99822.97
2022-09-13T04:14:03.425Z,99817.69
2022-09-13T04:19:07.426Z,99809.78
2022-09-13T04:24:10.147Z,99818.97
2022-09-13T04:29:13.054Z,99819.44
2022-09-13T04:34:18.551Z,99807.94
2022-09-13T04:39:21.404Z,99819.81
2022-09-13T04:44:24.550Z,99821.81
2022-09-13T04:49:28.686Z,99810.47
2022-09-13T04:54:31.382Z,99816.81
2022-09-13T04:59:34.025Z,99809.38
2022-09-13T05:04:38.392Z,99803.13
2022-09-13T05:09:41.511Z,99800.56
2022-09-13T05:14:44.381Z,99791.75
2022-09-13T05:19:49.392Z,99797.03
2022-09-13T05:24:52.069Z,99792.50
2022-09-13T05:29:54.719Z,99779.06
2022-09-13T05:34:58.912Z,99780.78
2022-09-13T05:40:17.048Z,99784.44
2022-09-13T05:45:19.835Z,99783.59
2022-09-13T05:50:54.193Z,99785.16
2022-09-13T05:55:46.761Z,99779.78
2022-09-13T06:00:53.985Z,99778.78
2022-09-13T06:05:58.613Z,99775.09
2022-09-13T06:11:02.277Z,99784.16
2022-09-13T06:16:06.726Z,99768.88
2022-09-13T06:21:11.994Z,99768.75
2022-09-13T06:26:16.180Z,99769.44
2022-09-13T06:31:19.654Z,99762.22
2022-09-13T06:36:23.814Z,99757.69
2022-09-13T06:41:27.209Z,99761.38
2022-09-13T06:46:31.144Z,99771.44
2022-09-13T06:51:35.669Z,99786.66
2022-09-13T06:56:39.082Z,99799.16
2022-09-13T07:01:43.270Z,99805.09
2022-09-13T07:06:48.108Z,99803.63
2022-09-13T07:11:51.400Z,99802.03
2022-09-13T07:16:54.336Z,99793.56
2022-09-13T07:21:58.443Z,99799.47
2022-09-13T07:27:01.086Z,99791.44
2022-09-13T07:32:03.892Z,99791.38
2022-09-13T07:37:07.915Z,99797.47
2022-09-13T07:42:10.764Z,99788.16
2022-09-13T07:47:13.512Z,99786.84
2022-09-13T07:52:17.574Z,99808.41
2022-09-13T07:57:20.280Z,99788.00
2022-09-13T08:02:23.004Z,99794.22
2022-09-13T08:07:27.140Z,99791.19
2022-09-13T08:12:29.877Z,99779.63
2022-09-13T08:17:32.557Z,99783.38
2022-09-13T08:22:36.671Z,99779.34
2022-09-13T08:27:39.404Z,99771.44
2022-09-13T08:32:42.132Z,99780.59
2022-09-13T08:37:46.396Z,99784.84
2022-09-13T08:42:52.333Z,99784.09
2022-09-13T08:47:57.527Z,99779.44
2022-09-13T08:53:14.060Z,99781.84
2022-09-13T08:58:38.390Z,99770.28
2022-09-13T09:03:43.908Z,99773.44
2022-09-13T09:08:48.944Z,99771.47
2022-09-13T09:13:52.983Z,99762.19
2022-09-13T09:18:56.062Z,99766.28
2022-09-13T09:24:00.082Z,99758.69
2022-09-13T09:29:09.512Z,99756.00
2022-09-13T09:34:15.499Z,99753.78
2022-09-13T09:39:19.632Z,99747.88
2022-09-13T09:44:22.972Z,99738.28
2022-09-13T09:49:45.375Z,99740.00
2022-09-13T09:54:49.535Z,99742.28
2022-09-13T09:59:52.310Z,99740.44
2022-09-13T10:04:56.654Z,99733.09
2022-09-13T10:10:02.425Z,99724.94
2022-09-13T10:15:07.901Z,99728.63
2022-09-13T10:20:21.674Z,99730.75
2022-09-13T10:25:27.078Z,99717.91
2022-09-13T10:30:33.891Z,99713.88
2022-09-13T10:35:36.984Z,99705.28
2022-09-13T10:40:40.982Z,99701.84
2022-09-13T10:45:43.802Z,99695.13
2022-09-13T10:51:02.156Z,99686.22
2022-09-13T10:56:06.875Z,99692.28
2022-09-13T11:01:17.810Z,99697.13
2022-09-13T11:06:24.488Z,99693.13
2022-09-13T11:11:30.771Z,99689.19
2022-09-13T11:16:39.085Z,99689.59
2022-09-13T11:21:48.715Z,99675.31
2022-09-13T11:26:58.894Z,99678.84
2022-09-13T11:32:07.700Z,99669.91
2022-09-13T11:37:28.250Z,99668.22
2022-09-13T11:42:40.850Z,99650.03
2022-09-13T11:47:50.027Z,99643.66
2022-09-13T11:52:58.875Z,99646.44
2022-09-13T11:58:04.190Z,99635.50
2022-09-13T12:03:11.166Z,99633.41
2022-09-13T12:08:15.233Z,99632.50
2022-09-13T12:13:21.792Z,99632.34
2022-09-13T12:18:26.331Z,99620.03
2022-09-13T12:23:31.112Z,99627.09
2022-09-13T12:28:36.237Z,99608.59
2022-09-13T12:33:40.350Z,99622.44
2022-09-13T12:39:33.984Z,99610.78
2022-09-13T12:44:56.541Z,99608.50
2022-09-13T12:56:04.231Z,99611.34
2022-09-13T13:01:11.800Z,99606.59
2022-09-13T13:06:22.897Z,99604.28
2022-09-13T13:11:26.774Z,99600.03
2022-09-13T13:16:33.040Z,99600.03
2022-09-13T13:21:37.693Z,99592.09
2022-09-13T13:26:48.413Z,99588.75
2022-09-13T13:32:11.084Z,99583.94
2022-09-13T13:37:35.542Z,99579.00
2022-09-13T13:42:39.661Z,99574.59
2022-09-13T13:48:15.227Z,99547.56
2022-09-13T13:53:23.245Z,99550.97
2022-09-13T13:58:45.231Z,99546.72
2022-09-13T14:03:59.523Z,99551.19
2022-09-13T14:09:17.644Z,99553.88
2022-09-13T14:14:29.296Z,99555.34
2022-09-13T14:19:34.033Z,99552.72
2022-09-13T14:24:39.998Z,99548.75
2022-09-13T14:29:45.850Z,99548.06
2022-09-13T14:34:55.723Z,99548.28
2022-09-13T14:39:59.548Z,99536.25
2022-09-13T14:45:03.387Z,99531.47
2022-09-13T14:50:09.112Z,99535.53
2022-09-13T14:55:14.805Z,99518.94
2022-09-13T15:00:19.090Z,99524.91
2022-09-13T15:05:26.684Z,99522.50
2022-09-13T15:10:32.943Z,99520.13
2022-09-13T15:15:36.833Z,99524.66
2022-09-13T15:20:49.362Z,99521.97
2022-09-13T15:25:54.372Z,99518.44
2022-09-13T15:30:57.725Z,99515.56
2022-09-13T15:36:28.114Z,99508.16
2022-09-13T15:41:32.481Z,99502.28
2022-09-13T15:46:37.872Z,99491.06
2022-09-13T15:51:42.241Z,99504.13
2022-09-13T15:56:46.610Z,99509.22
2022-09-13T16:01:50.022Z,99510.75
2022-09-13T16:06:54.285Z,99508.91
2022-09-13T16:11:57.316Z,99511.59
2022-09-13T16:17:00.865Z,99509.59
2022-09-13T16:22:06.355Z,99517.22
2022-09-13T16:27:11.686Z,99516.25
2022-09-13T16:32:14.334Z,99522.78
2022-09-13T16:37:19.700Z,99533.59
2022-09-13T16:42:22.372Z,99534.81
2022-09-13T16:47:25.046Z,99538.34
2022-09-13T16:52:29.258Z,99538.78
2022-09-13T16:57:32.053Z,99531.28
2022-09-13T17:02:35.216Z,99539.72
2022-09-13T17:07:39.413Z,99536.03
2022-09-13T17:12:42.170Z,99530.66
2022-09-13T17:17:45.238Z,99528.78
2022-09-13T17:22:49.247Z,99521.34
2022-09-13T17:27:51.938Z,99537.72
2022-09-13T17:32:54.563Z,99534.88
2022-09-13T17:37:58.528Z,99537.56
2022-09-13T17:43:01.612Z,99531.00
2022-09-13T17:48:04.392Z,99525.59
2022-09-13T17:53:08.385Z,99527.13
2022-09-13T17:58:11.009Z,99528.50
2022-09-13T18:03:14.107Z,99527.84
2022-09-13T18:08:18.176Z,99528.50
2022-09-13T18:13:20.824Z,99526.66
2022-09-13T18:18:24.219Z,99530.38
2022-09-13T18:23:28.647Z,99526.50
2022-09-13T18:28:31.508Z,99532.56
2022-09-13T18:33:34.274Z,99531.91
2022-09-13T18:38:39.000Z,99534.44
2022-09-13T18:43:42.781Z,99534.59
2022-09-13T18:48:46.110Z,99536.97
2022-09-13T18:53:50.346Z,99541.50
2022-09-13T18:58:53.396Z,99534.44
2022-09-13T19:03:57.063Z,99554.16
2022-09-13T19:09:01.486Z,99548.06
2022-09-13T19:14:04.173Z,99557.69
2022-09-13T19:19:06.825Z,99567.34
2022-09-13T19:24:16.231Z,99561.22
2022-09-13T19:29:20.666Z,99562.06
2022-09-13T19:34:23.497Z,99560.22
2022-09-13T19:39:30.329Z,99563.78
2022-09-13T19:44:33.329Z,99554.69
2022-09-13T19:49:36.088Z,99568.31
2022-09-13T19:54:40.320Z,99562.78
2022-09-13T19:59:42.987Z,99560.94
2022-09-13T20:04:47.504Z,99583.34
2022-09-13T20:09:52.685Z,99577.28
2022-09-13T20:14:55.395Z,99583.34
2022-09-13T20:19:58.462Z,99581.34
2022-09-13T20:25:03.742Z,99582.69
2022-09-13T20:30:07.937Z,99581.78
2022-09-13T20:35:11.540Z,99586.06
2022-09-13T20:40:16.057Z,99582.19
2022-09-13T20:45:18.785Z,99583.19
2022-09-13T20:50:21.567Z,99576.78
2022-09-13T20:55:26.345Z,99571.56
2022-09-13T21:00:29.050Z,99573.41
2022-09-13T21:05:31.901Z,99573.41
2022-09-13T21:10:35.970Z,99571.72
2022-09-13T21:15:39.102Z,99567.69
2022-09-13T21:20:41.759Z,99574.41
2022-09-13T21:25:46.219Z,99571.88
2022-09-13T21:30:58.952Z,99567.84
2022-09-13T21:36:02.685Z,99571.88
2022-09-13T21:41:07.550Z,99575.25
2022-09-13T21:46:13.065Z,99576.09
2022-09-13T21:51:16.733Z,99575.44
2022-09-13T21:56:21.504Z,99582.69
2022-09-13T22:01:24.730Z,99586.50
2022-09-13T22:06:32.665Z,99582.50
2022-09-13T22:11:39.041Z,99581.78
2022-09-13T22:16:42.832Z,99580.28
2022-09-13T22:21:46.491Z,99586.16
2022-09-13T22:26:51.208Z,99575.84
2022-09-13T22:31:54.031Z,99579.88
2022-09-13T22:36:56.672Z,99583.88
2022-09-13T22:42:00.685Z,99577.78
2022-09-13T22:47:03.369Z,99565.66
2022-09-13T22:52:06.174Z,99577.88
2022-09-13T22:57:10.343Z,99574.00
2022-09-13T23:02:13.003Z,99582.53
2022-09-13T23:07:15.747Z,99569.53
2022-09-13T23:12:19.884Z,99561.22
2022-09-13T23:17:22.687Z,99562.41
2022-09-13T23:22:25.461Z,99559.97
2022-09-13T23:27:30.277Z,99559.44
2022-09-13T23:32:33.086Z,99566.00
2022-09-13T23:37:35.853Z,99560.03
2022-09-13T23:42:40.001Z,99549.75
2022-09-13T23:47:42.792Z,99552.59
2022-09-13T23:52:45.553Z,99550.34
2022-09-13T23:57:49.627Z,99547.81
